createdAt,value
2022-07-26T00:00:10.787Z,22.50
2022-07-26T00:02:38.694Z,22.39
2022-07-26T00:05:09.940Z,22.27
2022-07-26T00:07:39.868Z,22.30
2022-07-26T00:10:08.205Z,22.23
2022-07-26T00:12:40.361Z,22.17
2022-07-26T00:15:16.700Z,22.18
2022-07-26T00:17:49.894Z,22.11
2022-07-26T00:23:04.753Z,22.08
2022-07-26T00:26:09.612Z,22.08
2022-07-26T00:28:37.318Z,21.96
2022-07-26T00:31:06.297Z,21.93
2022-07-26T00:33:34.282Z,21.88
2022-07-26T00:36:02.044Z,21.81
2022-07-26T00:38:29.537Z,21.67
2022-07-26T00:40:57.251Z,21.75
2022-07-26T00:43:24.750Z,21.64
2022-07-26T00:45:52.269Z,21.81
2022-07-26T00:48:21.130Z,21.61
2022-07-26T00:50:48.687Z,21.59
2022-07-26T00:53:16.349Z,21.63
2022-07-26T00:55:43.847Z,21.66
2022-07-26T00:58:13.388Z,21.67
2022-07-26T01:00:40.900Z,21.49
2022-07-26T01:03:08.560Z,21.44
2022-07-26T01:05:37.426Z,21.59
2022-07-26T01:08:05.265Z,21.49
2022-07-26T01:10:32.879Z,21.39
2022-07-26T01:13:00.933Z,21.47
2022-07-26T01:15:28.437Z,21.43
2022-07-26T01:17:55.921Z,21.55
2022-07-26T01:20:23.435Z,21.56
2022-07-26T01:22:52.342Z,21.54
2022-07-26T01:25:29.702Z,21.42
2022-07-26T01:27:57.427Z,21.42
2022-07-26T01:30:24.962Z,21.44
2022-07-26T01:32:52.473Z,21.51
2022-07-26T01:35:20.037Z,21.66
2022-07-26T01:37:47.553Z,21.36
2022-07-26T01:40:16.395Z,21.43
2022-07-26T01:42:43.928Z,21.36
2022-07-26T01:45:12.605Z,21.42
2022-07-26T01:47:40.635Z,21.35
2022-07-26T01:50:09.570Z,21.36
2022-07-26T01:52:37.347Z,21.39
2022-07-26T01:55:05.359Z,21.42
2022-07-26T01:57:34.186Z,21.66
2022-07-26T02:00:01.706Z,21.58
2022-07-26T02:02:29.647Z,21.62
2022-07-26T02:05:00.125Z,21.44
2022-07-26T02:07:28.147Z,21.37
2022-07-26T02:09:56.232Z,21.28
2022-07-26T02:12:25.870Z,21.46
2022-07-26T02:14:54.790Z,21.44
2022-07-26T02:17:22.330Z,21.48
2022-07-26T02:19:50.215Z,21.51
2022-07-26T02:22:18.939Z,21.52
2022-07-26T02:24:46.553Z,21.42
2022-07-26T02:27:14.084Z,21.40
2022-07-26T02:29:41.599Z,21.29
2022-07-26T02:32:11.103Z,21.07
2022-07-26T02:34:38.865Z,20.95
2022-07-26T02:37:06.531Z,21.02
2022-07-26T02:39:34.021Z,21.07
2022-07-26T02:42:03.034Z,21.07
2022-07-26T02:44:31.144Z,21.11
2022-07-26T02:46:58.687Z,21.11
2022-07-26T02:49:27.545Z,21.02
2022-07-26T02:51:55.076Z,20.92
2022-07-26T02:54:22.637Z,20.94
2022-07-26T02:56:50.173Z,20.75
2022-07-26T02:59:17.654Z,20.60
2022-07-26T03:01:45.297Z,20.63
2022-07-26T03:04:12.885Z,20.56
2022-07-26T03:06:41.737Z,20.58
2022-07-26T03:09:09.239Z,20.63
2022-07-26T03:11:36.712Z,20.46
2022-07-26T03:14:04.360Z,20.44
2022-07-26T03:16:32.295Z,20.49
2022-07-26T03:19:01.089Z,20.55
2022-07-26T03:21:28.741Z,20.41
2022-07-26T03:23:57.589Z,20.35
2022-07-26T03:26:25.088Z,20.29
2022-07-26T03:28:52.855Z,20.26
2022-07-26T03:31:20.630Z,20.12
2022-07-26T03:33:48.210Z,20.12
2022-07-26T03:36:16.334Z,20.04
2022-07-26T03:38:43.862Z,20.07
2022-07-26T03:41:13.494Z,20.06
2022-07-26T03:43:41.453Z,19.94
2022-07-26T03:46:08.989Z,19.86
2022-07-26T03:48:36.623Z,19.72
2022-07-26T03:51:04.540Z,19.53
2022-07-26T03:53:32.599Z,19.47
2022-07-26T03:56:17.871Z,19.41
2022-07-26T03:58:46.756Z,19.28
2022-07-26T04:01:14.293Z,19.18
2022-07-26T04:03:45.744Z,19.41
2022-07-26T04:06:15.347Z,19.41
2022-07-26T04:08:43.120Z,19.26
2022-07-26T04:11:10.630Z,19.18
2022-07-26T04:13:38.118Z,19.20
2022-07-26T04:16:07.959Z,19.17
2022-07-26T04:18:35.691Z,19.28
2022-07-26T04:21:03.501Z,19.36
2022-07-26T04:23:30.991Z,19.38
2022-07-26T04:25:58.500Z,19.48
2022-07-26T04:28:28.689Z,19.55
2022-07-26T04:30:56.254Z,19.71
2022-07-26T04:33:25.595Z,19.64
2022-07-26T04:35:53.524Z,19.43
2022-07-26T04:38:21.190Z,19.50
2022-07-26T04:40:48.629Z,19.55
2022-07-26T04:43:16.299Z,19.55
2022-07-26T04:45:44.687Z,19.35
2022-07-26T04:48:12.288Z,19.44
2022-07-26T04:50:42.310Z,19.43
2022-07-26T04:53:11.110Z,19.49
2022-07-26T04:55:38.745Z,19.47
2022-07-26T04:58:06.598Z,19.47
2022-07-26T05:00:35.072Z,19.54
2022-07-26T05:03:14.463Z,19.55
2022-07-26T05:05:43.625Z,19.51
2022-07-26T05:08:11.333Z,19.52
2022-07-26T05:10:39.237Z,19.68
2022-07-26T05:13:07.651Z,19.62
2022-07-26T05:15:36.588Z,19.59
2022-07-26T05:18:06.670Z,19.72
2022-07-26T05:20:35.269Z,19.81
2022-07-26T05:23:04.109Z,19.77
2022-07-26T05:25:31.670Z,19.71
2022-07-26T05:27:59.148Z,19.77
2022-07-26T05:30:26.736Z,19.90
2022-07-26T05:32:54.242Z,19.99
2022-07-26T05:35:22.165Z,20.05
2022-07-26T05:37:49.786Z,20.37
2022-07-26T05:40:18.594Z,20.49
2022-07-26T05:42:46.136Z,20.46
2022-07-26T05:45:13.895Z,20.62
2022-07-26T05:47:41.649Z,20.44
2022-07-26T05:50:10.135Z,20.50
2022-07-26T05:52:37.704Z,20.61
2022-07-26T05:55:06.361Z,20.67
2022-07-26T05:57:35.681Z,20.48
2022-07-26T06:00:03.854Z,20.35
2022-07-26T06:02:31.672Z,20.33
2022-07-26T06:04:59.481Z,20.49
2022-07-26T06:07:31.310Z,20.42
2022-07-26T06:10:02.077Z,20.53
2022-07-26T06:12:29.969Z,20.51
2022-07-26T06:15:00.791Z,20.67
2022-07-26T06:17:30.341Z,20.82
2022-07-26T06:19:58.465Z,20.83
2022-07-26T06:22:26.471Z,20.78
2022-07-26T06:24:54.013Z,20.85
2022-07-26T06:27:21.522Z,20.98
2022-07-26T06:29:49.292Z,20.95
2022-07-26T06:32:18.136Z,21.13
2022-07-26T06:34:45.762Z,21.24
2022-07-26T06:37:13.222Z,21.20
2022-07-26T06:39:40.678Z,21.25
2022-07-26T06:42:08.247Z,21.31
2022-07-26T06:44:35.731Z,21.45
2022-07-26T06:47:03.233Z,21.85
2022-07-26T06:49:32.187Z,21.90
2022-07-26T06:51:59.645Z,21.99
2022-07-26T06:54:27.486Z,21.98
2022-07-26T06:56:54.935Z,22.08
2022-07-26T06:59:22.455Z,22.15
2022-07-26T07:01:55.402Z,22.41
2022-07-26T07:04:27.456Z,22.40
2022-07-26T07:06:57.376Z,22.18
2022-07-26T07:09:25.458Z,22.01
2022-07-26T07:11:58.934Z,22.01
2022-07-26T07:14:30.258Z,22.25
2022-07-26T07:16:58.415Z,22.25
2022-07-26T07:19:26.528Z,22.39
2022-07-26T07:21:54.166Z,22.50
2022-07-26T07:24:23.685Z,22.41
2022-07-26T07:26:51.179Z,22.40
2022-07-26T07:29:20.181Z,22.49
2022-07-26T07:31:49.757Z,22.38
2022-07-26T07:34:22.514Z,22.41
2022-07-26T07:36:51.450Z,22.36
2022-07-26T07:39:19.129Z,22.55
2022-07-26T07:41:49.461Z,22.46
2022-07-26T07:44:17.094Z,22.52
2022-07-26T07:46:44.578Z,22.52
2022-07-26T07:49:12.539Z,22.46
2022-07-26T07:51:40.331Z,22.50
2022-07-26T07:54:08.173Z,22.47
2022-07-26T07:56:35.967Z,22.57
2022-07-26T07:59:04.825Z,22.65
2022-07-26T08:01:39.779Z,22.74
2022-07-26T08:04:08.487Z,22.88
2022-07-26T08:06:36.307Z,22.73
2022-07-26T08:09:05.553Z,22.77
2022-07-26T08:11:34.273Z,22.81
2022-07-26T08:14:01.978Z,22.73
2022-07-26T08:16:31.022Z,22.92
2022-07-26T08:18:58.691Z,23.12
2022-07-26T08:21:28.953Z,23.23
2022-07-26T08:23:56.977Z,23.39
2022-07-26T08:26:24.653Z,23.45
2022-07-26T08:29:00.154Z,23.49
2022-07-26T08:31:28.101Z,23.38
2022-07-26T08:33:57.314Z,23.47
2022-07-26T08:36:26.236Z,23.53
2022-07-26T08:38:59.369Z,23.55
2022-07-26T08:41:26.843Z,23.35
2022-07-26T08:43:54.510Z,23.39
2022-07-26T08:46:26.947Z,23.32
2022-07-26T08:48:55.349Z,23.32
2022-07-26T08:51:25.502Z,23.23
2022-07-26T08:54:00.549Z,23.25
2022-07-26T08:56:32.378Z,23.36
2022-07-26T08:58:59.937Z,23.39
2022-07-26T09:01:28.158Z,23.55
2022-07-26T09:03:55.692Z,23.83
2022-07-26T09:06:26.495Z,23.88
2022-07-26T09:09:11.245Z,23.73
2022-07-26T09:11:39.224Z,23.87
2022-07-26T09:14:07.306Z,24.01
2022-07-26T09:16:39.275Z,24.32
2022-07-26T09:19:19.469Z,24.48
2022-07-26T09:21:48.324Z,24.65
2022-07-26T09:24:31.243Z,24.48
2022-07-26T09:26:59.436Z,24.18
2022-07-26T09:29:28.358Z,24.03
2022-07-26T09:32:10.276Z,24.25
2022-07-26T09:34:38.498Z,24.61
2022-07-26T09:37:13.418Z,24.46
2022-07-26T09:39:58.018Z,23.92
2022-07-26T09:42:29.341Z,23.94
2022-07-26T09:44:58.428Z,24.11
2022-07-26T09:47:36.833Z,24.22
2022-07-26T09:50:12.238Z,24.55
2022-07-26T09:52:41.090Z,24.78
2022-07-26T09:55:10.224Z,24.93
2022-07-26T09:57:37.807Z,25.00
2022-07-26T10:00:07.710Z,25.07
2022-07-26T10:02:35.651Z,25.26
2022-07-26T10:05:03.167Z,25.13
2022-07-26T10:07:30.711Z,24.89
2022-07-26T10:10:03.447Z,24.89
2022-07-26T10:12:33.021Z,24.69
2022-07-26T10:15:00.574Z,24.87
2022-07-26T10:17:45.747Z,25.00
2022-07-26T10:20:44.491Z,25.00
2022-07-26T10:23:40.838Z,24.71
2022-07-26T10:26:12.161Z,24.68
2022-07-26T10:28:40.741Z,24.61
2022-07-26T10:31:30.387Z,24.71
2022-07-26T10:34:01.692Z,24.82
2022-07-26T10:36:32.600Z,24.98
2022-07-26T10:39:01.526Z,25.09
2022-07-26T10:41:34.593Z,25.10
2022-07-26T10:44:20.742Z,25.25
2022-07-26T10:47:11.248Z,25.41
2022-07-26T10:49:39.697Z,25.51
2022-07-26T10:52:18.325Z,25.63
2022-07-26T10:55:19.565Z,25.41
2022-07-26T10:57:49.719Z,25.20
2022-07-26T11:00:20.112Z,25.34
2022-07-26T11:02:54.539Z,25.54
2022-07-26T11:05:25.865Z,25.83
2022-07-26T11:07:59.332Z,25.82
2022-07-26T11:10:29.238Z,25.81
2022-07-26T11:13:14.010Z,25.76
2022-07-26T11:15:43.160Z,25.65
2022-07-26T11:18:19.538Z,25.39
2022-07-26T11:20:49.149Z,25.15
2022-07-26T11:23:30.573Z,25.22
2022-07-26T11:26:02.672Z,25.22
2022-07-26T11:28:32.098Z,25.42
2022-07-26T11:31:00.740Z,25.75
2022-07-26T11:33:37.783Z,25.71
2022-07-26T11:36:06.006Z,25.99
2022-07-26T11:38:51.238Z,26.21
2022-07-26T11:41:34.404Z,26.11
2022-07-26T11:44:04.775Z,26.12
2022-07-26T11:46:40.326Z,25.87
2022-07-26T11:49:15.814Z,25.72
2022-07-26T11:51:50.562Z,25.77
2022-07-26T11:54:18.238Z,25.71
2022-07-26T11:56:56.049Z,25.71
2022-07-26T11:59:26.784Z,25.50
2022-07-26T12:01:55.225Z,25.34
2022-07-26T12:04:24.935Z,25.48
2022-07-26T12:06:53.503Z,25.39
2022-07-26T12:09:32.089Z,25.45
2022-07-26T12:12:00.349Z,25.25
2022-07-26T12:14:30.685Z,25.39
2022-07-26T12:16:59.298Z,25.53
2022-07-26T12:19:29.840Z,25.66
2022-07-26T12:21:59.985Z,25.59
2022-07-26T12:24:46.025Z,25.55
2022-07-26T12:27:15.870Z,25.59
2022-07-26T12:29:46.275Z,25.40
2022-07-26T12:32:15.176Z,25.37
2022-07-26T12:34:57.607Z,25.57
2022-07-26T12:37:39.582Z,25.80
2022-07-26T12:40:10.466Z,26.27
2022-07-26T12:42:39.555Z,26.37
2022-07-26T12:45:10.516Z,26.13
2022-07-26T12:47:39.020Z,26.16
2022-07-26T12:50:08.533Z,26.39
2022-07-26T12:52:36.405Z,26.53
2022-07-26T12:55:06.413Z,26.44
2022-07-26T12:57:34.239Z,26.19
2022-07-26T13:00:06.084Z,26.00
2022-07-26T13:02:34.925Z,26.06
2022-07-26T13:05:04.294Z,26.03
2022-07-26T13:07:31.895Z,26.07
2022-07-26T13:10:31.134Z,26.30
2022-07-26T13:12:47.162Z,26.45
2022-07-26T13:15:14.643Z,26.74
2022-07-26T13:17:43.426Z,26.87
2022-07-26T13:20:11.274Z,26.79
2022-07-26T13:22:38.729Z,26.66
2022-07-26T13:25:08.754Z,26.60
2022-07-26T13:27:39.105Z,26.37
2022-07-26T13:30:09.731Z,26.19
2022-07-26T13:32:37.187Z,26.18
2022-07-26T13:35:06.709Z,26.10
2022-07-26T13:37:34.236Z,26.04
2022-07-26T13:40:01.823Z,25.96
2022-07-26T13:42:29.331Z,25.85
2022-07-26T13:44:56.814Z,26.04
2022-07-26T13:47:24.276Z,26.12
2022-07-26T13:49:51.743Z,26.26
2022-07-26T13:52:20.604Z,26.24
2022-07-26T13:54:48.057Z,26.34
2022-07-26T13:57:15.531Z,26.20
2022-07-26T13:59:43.002Z,26.19
2022-07-26T14:02:10.614Z,26.15
2022-07-26T14:04:38.154Z,26.15
2022-07-26T14:07:05.604Z,26.11
2022-07-26T14:09:34.405Z,25.96
2022-07-26T14:12:01.891Z,26.03
2022-07-26T14:14:29.374Z,26.11
2022-07-26T14:16:56.892Z,26.18
2022-07-26T14:19:24.402Z,26.25
2022-07-26T14:21:59.095Z,26.25
2022-07-26T14:24:28.040Z,25.98
2022-07-26T14:26:59.686Z,26.25
2022-07-26T14:29:29.438Z,26.26
2022-07-26T14:31:57.339Z,26.25
2022-07-26T14:34:24.972Z,26.39
2022-07-26T14:36:52.531Z,26.52
2022-07-26T14:39:20.235Z,26.51
2022-07-26T14:41:48.445Z,26.54
2022-07-26T14:44:17.584Z,26.65
2022-07-26T14:46:46.366Z,26.78
2022-07-26T14:49:14.326Z,26.73
2022-07-26T14:51:41.924Z,26.78
2022-07-26T14:54:10.010Z,26.82
2022-07-26T14:56:37.717Z,26.65
2022-07-26T14:59:05.326Z,26.65
2022-07-26T15:01:34.432Z,26.24
2022-07-26T15:04:02.046Z,26.23
2022-07-26T15:06:29.710Z,26.51
2022-07-26T15:08:57.443Z,26.46
2022-07-26T15:11:25.144Z,26.27
2022-07-26T15:13:54.135Z,26.17
2022-07-26T15:16:22.149Z,26.14
2022-07-26T15:18:51.345Z,26.10
2022-07-26T15:21:18.993Z,26.09
2022-07-26T15:23:46.499Z,26.12
2022-07-26T15:26:14.042Z,26.20
2022-07-26T15:28:41.488Z,26.18
2022-07-26T15:31:10.441Z,26.11
2022-07-26T15:33:38.065Z,26.16
2022-07-26T15:36:07.145Z,26.14
2022-07-26T15:38:34.597Z,26.26
2022-07-26T15:41:02.167Z,26.32
2022-07-26T15:43:48.558Z,26.26
2022-07-26T15:46:17.138Z,26.40
2022-07-26T15:48:45.560Z,26.58
2022-07-26T15:51:15.131Z,26.58
2022-07-26T15:53:46.397Z,26.53
2022-07-26T15:56:14.459Z,26.45
2022-07-26T15:58:41.950Z,26.58
2022-07-26T16:01:09.469Z,26.56
2022-07-26T16:03:37.016Z,26.68
2022-07-26T16:06:06.145Z,26.71
2022-07-26T16:08:47.459Z,26.93
2022-07-26T16:11:22.917Z,26.89
2022-07-26T16:13:51.456Z,26.71
2022-07-26T16:16:30.319Z,26.55
2022-07-26T16:18:58.358Z,26.50
2022-07-26T16:21:26.334Z,26.54
2022-07-26T16:23:55.352Z,26.46
2022-07-26T16:26:25.065Z,26.56
2022-07-26T16:28:53.077Z,26.67
2022-07-26T16:31:20.748Z,26.78
2022-07-26T16:33:48.234Z,26.95
2022-07-26T16:36:15.789Z,27.01
2022-07-26T16:38:43.246Z,27.11
2022-07-26T16:41:12.796Z,27.11
2022-07-26T16:43:40.341Z,27.12
2022-07-26T16:46:07.844Z,27.18
2022-07-26T16:48:35.498Z,27.18
2022-07-26T16:51:02.992Z,27.12
2022-07-26T16:53:30.595Z,27.18
2022-07-26T16:55:58.114Z,27.41
2022-07-26T16:58:26.945Z,27.44
2022-07-26T17:00:54.561Z,27.27
2022-07-26T17:03:22.156Z,27.26
2022-07-26T17:05:49.935Z,27.26
2022-07-26T17:08:17.646Z,27.40
2022-07-26T17:10:45.602Z,27.36
2022-07-26T17:13:13.115Z,27.12
2022-07-26T17:15:41.934Z,27.23
2022-07-26T17:18:09.679Z,27.65
2022-07-26T17:20:39.157Z,27.93
2022-07-26T17:23:06.729Z,28.40
2022-07-26T17:25:34.259Z,28.49
2022-07-26T17:28:02.058Z,28.45
2022-07-26T17:30:29.677Z,28.17
2022-07-26T17:32:58.570Z,27.91
2022-07-26T17:35:26.302Z,27.38
2022-07-26T17:37:55.975Z,26.95
2022-07-26T17:40:25.749Z,26.92
2022-07-26T17:42:53.547Z,26.45
2022-07-26T17:45:21.222Z,26.63
2022-07-26T17:47:48.692Z,26.30
2022-07-26T17:53:05.111Z,26.34
2022-07-26T17:55:32.582Z,26.05
2022-07-26T17:58:00.126Z,26.04
2022-07-26T18:00:29.171Z,26.02
2022-07-26T18:02:57.395Z,25.77
2022-07-26T18:05:33.956Z,25.50
2022-07-26T18:08:03.885Z,25.39
2022-07-26T18:10:31.477Z,25.14
2022-07-26T18:12:58.963Z,25.22
2022-07-26T18:15:26.474Z,25.15
2022-07-26T18:17:54.074Z,25.15
2022-07-26T18:20:21.566Z,25.12
2022-07-26T18:22:54.549Z,24.95
2022-07-26T18:25:22.100Z,24.85
2022-07-26T18:27:49.778Z,24.86
2022-07-26T18:30:17.390Z,24.81
2022-07-26T18:32:44.881Z,24.67
2022-07-26T18:35:12.419Z,24.56
2022-07-26T18:37:39.959Z,24.49
2022-07-26T18:40:09.896Z,24.43
2022-07-26T18:42:37.830Z,24.37
2022-07-26T18:45:08.498Z,24.42
2022-07-26T18:47:36.090Z,24.40
2022-07-26T18:50:03.870Z,24.36
2022-07-26T18:52:32.796Z,24.15
2022-07-26T18:55:06.640Z,24.17
2022-07-26T18:57:36.909Z,24.09
2022-07-26T19:00:06.241Z,24.08
2022-07-26T19:02:34.926Z,24.13
2022-07-26T19:05:02.713Z,24.00
2022-07-26T19:07:32.830Z,24.05
2022-07-26T19:10:00.829Z,23.96
2022-07-26T19:12:28.890Z,24.04
2022-07-26T19:15:09.116Z,24.14
2022-07-26T19:17:44.596Z,24.09
2022-07-26T19:20:35.516Z,24.09
2022-07-26T19:23:17.184Z,23.98
2022-07-26T19:25:48.562Z,24.00
2022-07-26T19:28:23.709Z,23.91
2022-07-26T19:30:54.495Z,23.90
2022-07-26T19:33:28.978Z,23.83
2022-07-26T19:35:57.918Z,23.84
2022-07-26T19:38:26.023Z,23.72
2022-07-26T19:40:55.654Z,23.67
2022-07-26T19:43:23.779Z,23.77
2022-07-26T19:45:55.637Z,23.67
2022-07-26T19:48:25.606Z,23.64
2022-07-26T19:50:55.727Z,23.66
2022-07-26T19:53:30.213Z,23.66
2022-07-26T19:56:01.818Z,23.66
2022-07-26T19:58:31.625Z,23.69
2022-07-26T20:01:09.253Z,23.73
2022-07-26T20:03:38.348Z,23.57
2022-07-26T20:06:13.108Z,23.55
2022-07-26T20:08:50.013Z,23.64
2022-07-26T20:11:19.938Z,23.59
2022-07-26T20:13:53.982Z,23.59
2022-07-26T20:16:30.401Z,23.56
2022-07-26T20:19:03.524Z,23.48
2022-07-26T20:21:37.219Z,23.44
2022-07-26T20:24:07.319Z,23.42
2022-07-26T20:26:37.481Z,23.48
2022-07-26T20:29:31.596Z,23.43
2022-07-26T20:32:01.233Z,23.33
2022-07-26T20:34:33.855Z,23.28
2022-07-26T20:37:08.972Z,23.23
2022-07-26T20:39:48.247Z,23.23
2022-07-26T20:42:27.270Z,23.18
2022-07-26T20:45:03.288Z,23.02
2022-07-26T20:47:58.456Z,22.98
2022-07-26T20:50:39.463Z,22.97
2022-07-26T20:53:12.869Z,22.92
2022-07-26T20:55:57.413Z,22.83
2022-07-26T20:58:33.257Z,22.86
2022-07-26T21:01:01.252Z,22.75
2022-07-26T21:03:30.510Z,22.66
2022-07-26T21:05:59.263Z,22.64
2022-07-26T21:08:30.867Z,22.62
2022-07-26T21:11:11.880Z,22.56
2022-07-26T21:13:41.050Z,22.55
2022-07-26T21:16:11.729Z,22.53
2022-07-26T21:18:53.027Z,22.46
2022-07-26T21:21:33.861Z,22.45
2022-07-26T21:24:03.263Z,22.38
2022-07-26T21:26:48.735Z,22.37
2022-07-26T21:29:22.781Z,22.27
2022-07-26T21:32:02.164Z,22.26
2022-07-26T21:34:46.099Z,22.26
2022-07-26T21:37:25.690Z,22.19
2022-07-26T21:40:00.662Z,22.17
2022-07-26T21:42:32.151Z,22.09
2022-07-26T21:45:01.904Z,22.15
2022-07-26T21:47:35.832Z,22.12
2022-07-26T21:50:11.096Z,22.02
2022-07-26T21:52:44.502Z,22.10
2022-07-26T21:55:30.473Z,22.04
2022-07-26T21:58:04.834Z,21.80
2022-07-26T22:00:45.866Z,21.76
2022-07-26T22:03:16.229Z,21.82
2022-07-26T22:05:48.838Z,21.69
2022-07-26T22:08:23.626Z,21.71
2022-07-26T22:10:59.581Z,21.71
2022-07-26T22:13:32.062Z,21.61
2022-07-26T22:16:05.477Z,21.58
2022-07-26T22:18:51.579Z,21.64
2022-07-26T22:21:26.439Z,21.49
2022-07-26T22:23:56.860Z,21.55
2022-07-26T22:26:27.272Z,21.47
2022-07-26T22:28:55.108Z,21.38
2022-07-26T22:31:22.908Z,21.44
2022-07-26T22:33:50.626Z,21.31
2022-07-26T22:36:19.775Z,21.24
2022-07-26T22:38:47.655Z,21.18
2022-07-26T22:41:15.603Z,21.07
2022-07-26T22:43:43.502Z,21.05
2022-07-26T22:46:11.410Z,21.06
2022-07-26T22:48:44.442Z,21.01
2022-07-26T22:51:17.298Z,21.00
2022-07-26T22:53:46.406Z,20.95
2022-07-26T22:56:14.067Z,20.90
2022-07-26T22:58:47.247Z,20.90
2022-07-26T23:01:16.384Z,20.83
2022-07-26T23:03:44.592Z,20.85
2022-07-26T23:06:31.195Z,20.78
2022-07-26T23:09:01.250Z,20.83
2022-07-26T23:11:30.817Z,20.80
2022-07-26T23:13:59.508Z,20.75
2022-07-26T23:16:27.240Z,20.72
2022-07-26T23:18:56.335Z,20.74
2022-07-26T23:21:23.969Z,20.78
2022-07-26T23:23:51.549Z,20.72
2022-07-26T23:26:20.467Z,20.77
2022-07-26T23:28:48.036Z,20.75
2022-07-26T23:31:15.869Z,20.72
2022-07-26T23:33:53.076Z,20.72
2022-07-26T23:36:25.725Z,20.70
2022-07-26T23:38:53.596Z,20.73
2022-07-26T23:41:22.629Z,20.59
2022-07-26T23:43:50.173Z,20.73
2022-07-26T23:46:18.148Z,20.67
2022-07-26T23:48:45.930Z,20.67
2022-07-26T23:51:13.861Z,20.61
2022-07-26T23:53:41.704Z,20.65
2022-07-26T23:56:09.718Z,20.64
2022-07-26T23:58:38.797Z,20.49
